createdAt,value
2023-01-17T00:02:06.527Z,4.93
2023-01-17T00:04:52.253Z,7.13
2023-01-17T00:07:40.405Z,7.50
2023-01-17T00:10:28.299Z,6.72
2023-01-17T00:13:01.418Z,7.22
2023-01-17T00:15:30.893Z,5.53
2023-01-17T00:17:58.299Z,7.30
2023-01-17T00:20:47.079Z,5.05
2023-01-17T00:23:37.709Z,5.53
2023-01-17T00:26:12.649Z,6.95
2023-01-17T00:28:41.566Z,5.10
2023-01-17T00:31:11.267Z,3.47
2023-01-17T00:33:38.280Z,3.75
2023-01-17T00:36:06.449Z,5.03
2023-01-17T00:38:36.726Z,2.33
2023-01-17T00:41:14.161Z,2.33
2023-01-17T00:43:59.818Z,1.63
2023-01-17T00:46:44.898Z,1.90
2023-01-17T00:49:30.804Z,1.77
2023-01-17T00:52:15.905Z,3.25
2023-01-17T00:55:01.156Z,5.43
2023-01-17T00:57:46.460Z,4.88
2023-01-17T01:00:32.356Z,5.78
2023-01-17T01:03:17.635Z,6.13
2023-01-17T01:06:02.832Z,7.13
2023-01-17T01:08:49.077Z,7.25
2023-01-17T01:11:38.692Z,5.78
2023-01-17T01:14:26.865Z,5.82
2023-01-17T01:17:12.045Z,9.80
2023-01-17T01:19:57.316Z,7.00
2023-01-17T01:22:42.427Z,2.85
2023-01-17T01:25:27.771Z,1.77
2023-01-17T01:28:26.248Z,5.75
2023-01-17T01:31:11.503Z,4.07
2023-01-17T01:33:38.579Z,4.10
2023-01-17T01:36:08.749Z,3.55
2023-01-17T01:38:35.490Z,3.72
2023-01-17T01:41:02.445Z,5.13
2023-01-17T01:43:48.567Z,4.20
2023-01-17T01:46:35.462Z,6.35
2023-01-17T01:49:24.629Z,5.70
2023-01-17T01:51:56.513Z,5.07
2023-01-17T01:54:30.623Z,2.20
2023-01-17T01:57:01.146Z,3.78
2023-01-17T01:59:30.686Z,7.82
2023-01-17T02:01:58.197Z,4.88
2023-01-17T02:04:28.178Z,8.10
2023-01-17T02:07:08.237Z,6.78
2023-01-17T02:09:35.037Z,5.78
2023-01-17T02:12:03.686Z,4.85
2023-01-17T02:14:30.423Z,6.25
2023-01-17T02:17:32.681Z,4.72
2023-01-17T02:20:20.316Z,5.15
2023-01-17T02:23:07.073Z,4.82
2023-01-17T02:25:56.434Z,3.10
2023-01-17T02:28:58.004Z,6.18
2023-01-17T02:31:37.420Z,4.88
2023-01-17T02:34:25.171Z,8.75
2023-01-17T02:37:34.735Z,5.75
2023-01-17T02:40:19.437Z,12.38
2023-01-17T02:42:53.256Z,8.88
2023-01-17T02:45:21.064Z,12.23
2023-01-17T02:47:47.806Z,9.57
2023-01-17T02:51:05.713Z,9.63
2023-01-17T02:53:38.074Z,9.88
2023-01-17T02:56:40.314Z,6.85
2023-01-17T02:59:26.308Z,7.85
2023-01-17T03:02:19.800Z,6.97
2023-01-17T03:05:00.160Z,4.78
2023-01-17T03:07:28.140Z,4.88
2023-01-17T03:09:59.939Z,4.90
2023-01-17T03:12:32.819Z,3.45
2023-01-17T03:14:59.560Z,2.35
2023-01-17T03:17:31.881Z,4.43
2023-01-17T03:19:59.394Z,3.53
2023-01-17T03:22:26.120Z,1.58
2023-01-17T03:24:52.859Z,3.75
2023-01-17T03:27:19.573Z,4.00
2023-01-17T03:29:46.417Z,2.20
2023-01-17T03:32:13.149Z,3.30
2023-01-17T03:34:39.885Z,5.25
2023-01-17T03:37:06.613Z,5.38
2023-01-17T03:39:33.340Z,4.65
2023-01-17T03:42:00.046Z,4.20
2023-01-17T03:44:26.815Z,7.05
2023-01-17T03:46:53.523Z,6.18
2023-01-17T03:49:20.742Z,7.50
2023-01-17T03:51:47.459Z,6.00
2023-01-17T03:54:14.195Z,8.13
2023-01-17T03:56:40.902Z,6.75
2023-01-17T03:59:07.697Z,7.68
2023-01-17T04:01:34.643Z,6.60
2023-01-17T04:04:01.471Z,8.75
2023-01-17T04:06:28.475Z,6.82
2023-01-17T04:08:55.298Z,7.80
2023-01-17T04:11:22.070Z,10.10
2023-01-17T04:13:48.803Z,8.55
2023-01-17T04:16:18.037Z,7.32
2023-01-17T04:18:45.020Z,8.60
2023-01-17T04:21:11.838Z,9.50
2023-01-17T04:23:38.729Z,8.95
2023-01-17T04:26:05.649Z,7.32
2023-01-17T04:28:32.417Z,8.35
2023-01-17T04:31:00.404Z,7.57
2023-01-17T04:33:27.175Z,9.75
2023-01-17T04:35:54.434Z,7.93
2023-01-17T04:38:22.205Z,9.93
2023-01-17T04:40:49.682Z,8.43
2023-01-17T04:43:17.361Z,9.43
2023-01-17T04:45:44.189Z,7.38
2023-01-17T04:48:12.588Z,8.93
2023-01-17T04:50:40.110Z,8.27
2023-01-17T04:53:06.955Z,12.77
2023-01-17T04:55:33.746Z,12.60
2023-01-17T04:58:00.572Z,9.95
2023-01-17T05:00:27.353Z,12.95
2023-01-17T05:02:54.148Z,9.98
2023-01-17T05:05:20.921Z,13.50
2023-01-17T05:07:58.543Z,8.68
2023-01-17T05:10:25.721Z,15.60
2023-01-17T05:12:56.898Z,14.60
2023-01-17T05:15:24.409Z,13.88
2023-01-17T05:17:52.786Z,13.73
2023-01-17T05:20:22.219Z,11.30
2023-01-17T05:22:56.677Z,10.60
2023-01-17T05:25:26.296Z,11.82
2023-01-17T05:27:53.595Z,13.18
2023-01-17T05:30:21.535Z,8.50
2023-01-17T05:32:53.168Z,13.00
2023-01-17T05:35:23.241Z,12.00
2023-01-17T05:37:51.524Z,10.75
2023-01-17T06:02:37.108Z,11.18
2023-01-17T06:05:04.501Z,15.52
2023-01-17T06:07:31.491Z,14.55
2023-01-17T06:09:58.308Z,15.30
2023-01-17T06:12:25.044Z,17.90
2023-01-17T06:14:51.938Z,12.20
2023-01-17T06:17:18.704Z,15.80
2023-01-17T06:19:45.454Z,16.92
2023-01-17T06:22:12.192Z,15.85
2023-01-17T06:24:38.897Z,12.18
2023-01-17T06:27:05.668Z,16.65
2023-01-17T06:29:32.402Z,13.90
2023-01-17T06:32:01.514Z,19.77
2023-01-17T06:34:28.934Z,12.95
2023-01-17T06:36:56.833Z,14.13
2023-01-17T06:39:23.620Z,14.30
2023-01-17T06:41:50.402Z,12.55
2023-01-17T06:44:17.212Z,20.52
2023-01-17T06:46:45.006Z,12.57
2023-01-17T06:49:11.876Z,13.00
2023-01-17T06:51:38.621Z,10.55
